Terminal Aerodrome Forecast
Issued by NWS

Current Version | Previous Version | Text Only | Print | Product List | Glossary On
Versions: 1 2 3 4 5 6 7 8 9 10 11 12 13 14 15 16 17 18 19
000
FTUS43 KPAH 311200 AAA
TAFCGI
TAF AMD
KCGI 311251Z 3113/0112 15004KT P6SM BKN100 OVC250
     FM010800 17005KT P6SM BKN030 OVC100=

USA.gov is the U.S. government's official web portal to all federal, state and local government web resources and services.